createdAt,value
2022-08-21T00:03:02.322Z,19.46
2022-08-21T00:08:05.643Z,19.46
2022-08-21T00:13:08.737Z,19.41
2022-08-21T00:18:12.143Z,19.53
2022-08-21T00:23:15.287Z,19.67
2022-08-21T00:28:18.202Z,19.60
2022-08-21T00:33:21.779Z,19.63
2022-08-21T00:38:24.543Z,19.68
2022-08-21T00:43:31.389Z,19.59
2022-08-21T00:48:35.171Z,19.47
2022-08-21T00:53:41.496Z,19.59
2022-08-21T00:58:44.555Z,19.49
2022-08-21T01:03:48.024Z,19.52
2022-08-21T01:08:52.853Z,19.57
2022-08-21T01:13:56.278Z,19.59
2022-08-21T01:18:59.118Z,19.56
2022-08-21T01:24:02.228Z,19.49
2022-08-21T01:29:35.379Z,19.32
2022-08-21T01:34:42.024Z,19.19
2022-08-21T01:39:45.496Z,19.11
2022-08-21T01:44:48.316Z,19.06
2022-08-21T01:49:53.075Z,19.15
2022-08-21T01:54:55.889Z,19.17
2022-08-21T01:59:58.765Z,19.35
2022-08-21T02:05:01.410Z,19.30
2022-08-21T02:10:06.964Z,19.38
2022-08-21T02:15:10.743Z,19.26
2022-08-21T02:20:27.938Z,19.09
2022-08-21T02:25:31.503Z,18.99
2022-08-21T02:30:39.216Z,18.95
2022-08-21T02:35:44.090Z,19.01
2022-08-21T02:40:51.066Z,19.08
2022-08-21T02:45:56.269Z,19.07
2022-08-21T02:51:08.166Z,18.94
2022-08-21T02:56:14.830Z,18.93
2022-08-21T03:01:18.233Z,18.93
2022-08-21T03:06:25.581Z,18.97
2022-08-21T03:11:28.312Z,19.07
2022-08-21T03:16:34.725Z,19.02
2022-08-21T03:21:37.992Z,18.97
2022-08-21T03:26:40.698Z,19.06
2022-08-21T03:31:44.279Z,19.05
2022-08-21T03:36:47.157Z,19.12
2022-08-21T03:41:49.869Z,18.98
2022-08-21T03:46:52.989Z,18.96
2022-08-21T03:51:59.873Z,19.02
2022-08-21T03:57:02.762Z,19.07
2022-08-21T04:02:07.079Z,19.18
2022-08-21T04:07:10.005Z,19.15
2022-08-21T04:12:12.707Z,19.08
2022-08-21T04:17:15.421Z,19.13
2022-08-21T04:22:18.359Z,19.12
2022-08-21T04:27:21.187Z,19.23
2022-08-21T04:32:25.684Z,19.33
2022-08-21T04:37:28.557Z,19.41
2022-08-21T04:42:31.358Z,19.60
2022-08-21T04:47:52.264Z,19.64
2022-08-21T04:52:56.893Z,19.79
2022-08-21T04:58:01.190Z,19.94
2022-08-21T05:03:06.191Z,20.00
2022-08-21T05:08:13.000Z,20.03
2022-08-21T05:13:16.302Z,20.20
2022-08-21T05:18:18.994Z,20.43
2022-08-21T05:23:21.846Z,20.55
2022-08-21T05:28:24.728Z,20.62
2022-08-21T05:33:29.641Z,20.78
2022-08-21T05:38:32.390Z,20.93
2022-08-21T05:43:37.363Z,21.05
2022-08-21T05:48:40.281Z,21.15
2022-08-21T05:53:43.856Z,21.17
2022-08-21T05:58:46.755Z,21.18
2022-08-21T06:03:49.457Z,21.23
2022-08-21T06:08:53.670Z,21.31
2022-08-21T06:13:56.661Z,21.41
2022-08-21T06:19:02.832Z,21.42
2022-08-21T06:24:07.892Z,21.49
2022-08-21T06:29:13.533Z,21.64
2022-08-21T06:34:17.489Z,21.83
2022-08-21T06:39:24.840Z,21.95
2022-08-21T06:44:28.505Z,22.15
2022-08-21T06:49:31.188Z,22.36
2022-08-21T06:54:36.132Z,22.51
2022-08-21T06:59:39.304Z,22.67
2022-08-21T07:04:42.309Z,22.78
2022-08-21T07:09:45.010Z,22.92
2022-08-21T07:14:48.356Z,23.12
2022-08-21T07:19:52.751Z,23.25
2022-08-21T07:24:56.472Z,23.33
2022-08-21T07:29:59.191Z,23.35
2022-08-21T07:35:02.075Z,23.31
2022-08-21T07:40:06.898Z,23.34
2022-08-21T07:45:10.812Z,23.40
2022-08-21T07:50:14.521Z,23.56
2022-08-21T07:55:20.698Z,23.71
2022-08-21T08:00:29.893Z,23.87
2022-08-21T08:05:33.446Z,23.97
2022-08-21T08:10:39.319Z,24.18
2022-08-21T08:15:42.034Z,24.45
2022-08-21T08:20:46.137Z,24.79
2022-08-21T08:25:49.294Z,25.23
2022-08-21T08:30:52.600Z,25.46
2022-08-21T08:35:55.455Z,25.61
2022-08-21T08:41:14.014Z,25.89
2022-08-21T08:46:21.283Z,26.19
2022-08-21T08:51:40.283Z,26.31
2022-08-21T08:56:43.172Z,26.36
2022-08-21T09:01:46.135Z,26.35
2022-08-21T09:07:15.179Z,26.37
2022-08-21T09:12:37.035Z,26.48
2022-08-21T09:17:58.396Z,26.47
2022-08-21T09:23:19.623Z,26.44
2022-08-21T09:28:22.524Z,26.31
2022-08-21T09:33:25.323Z,26.33
2022-08-21T09:38:30.172Z,26.50
2022-08-21T09:43:34.299Z,26.80
2022-08-21T09:48:44.489Z,27.08
2022-08-21T09:53:58.156Z,27.34
2022-08-21T09:59:01.101Z,27.74
2022-08-21T10:04:10.738Z,28.00
2022-08-21T10:09:21.027Z,28.22
2022-08-21T10:14:59.587Z,28.36
2022-08-21T10:20:26.895Z,28.50
2022-08-21T10:25:34.289Z,28.49
2022-08-21T10:30:45.397Z,28.46
2022-08-21T10:36:18.463Z,28.42
2022-08-21T10:41:40.127Z,28.02
2022-08-21T10:46:43.073Z,27.73
2022-08-21T10:51:55.525Z,27.78
2022-08-21T10:57:06.581Z,28.02
2022-08-21T11:02:39.994Z,28.33
2022-08-21T11:07:55.019Z,28.75
2022-08-21T11:13:04.111Z,28.99
2022-08-21T11:18:38.334Z,29.37
2022-08-21T11:24:10.176Z,29.74
2022-08-21T11:29:18.864Z,30.17
2022-08-21T11:34:32.428Z,30.36
2022-08-21T11:40:05.629Z,30.43
2022-08-21T11:45:15.704Z,30.79
2022-08-21T11:50:34.817Z,31.18
2022-08-21T11:55:47.661Z,31.12
2022-08-21T12:01:04.895Z,31.05
2022-08-21T12:06:13.672Z,30.73
2022-08-21T12:11:30.685Z,30.43
2022-08-21T12:16:39.577Z,30.42
2022-08-21T12:21:56.073Z,30.59
2022-08-21T12:27:31.086Z,30.63
2022-08-21T12:32:42.546Z,30.38
2022-08-21T12:38:01.278Z,30.18
2022-08-21T12:43:06.272Z,29.96
2022-08-21T12:48:28.174Z,29.83
2022-08-21T12:53:33.479Z,29.76
2022-08-21T12:58:36.380Z,29.64
2022-08-21T13:03:39.859Z,29.47
2022-08-21T13:08:47.115Z,29.33
2022-08-21T13:13:52.874Z,29.30
2022-08-21T13:19:03.362Z,29.28
2022-08-21T13:29:44.400Z,28.74
2022-08-21T13:34:55.541Z,28.36
2022-08-21T13:39:58.454Z,27.77
2022-08-21T13:45:01.324Z,27.10
2022-08-21T13:50:04.993Z,26.49
2022-08-21T13:55:17.377Z,25.95
2022-08-21T14:00:27.132Z,25.54
2022-08-21T14:05:33.304Z,25.19
2022-08-21T14:10:41.905Z,24.93
2022-08-21T14:15:57.663Z,24.75
2022-08-21T14:21:09.465Z,24.62
2022-08-21T14:26:12.300Z,24.56
2022-08-21T14:31:20.135Z,24.51
2022-08-21T14:36:23.216Z,24.50
2022-08-21T14:41:29.104Z,24.40
2022-08-21T14:46:33.124Z,24.15
2022-08-21T14:51:35.877Z,23.91
2022-08-21T14:56:38.623Z,23.65
2022-08-21T15:01:41.353Z,23.28
2022-08-21T15:06:44.644Z,22.92
2022-08-21T15:11:47.670Z,22.57
2022-08-21T15:16:51.577Z,22.27
2022-08-21T15:21:54.708Z,22.04
2022-08-21T15:27:01.383Z,21.87
2022-08-21T15:32:19.901Z,21.75
2022-08-21T15:37:24.008Z,21.64
2022-08-21T15:42:28.417Z,21.50
2022-08-21T15:47:35.070Z,21.40
2022-08-21T15:52:38.188Z,21.30
2022-08-21T15:57:57.484Z,21.22
2022-08-21T16:03:05.324Z,21.18
2022-08-21T16:08:08.336Z,21.12
2022-08-21T16:13:19.131Z,21.02
2022-08-21T16:18:23.921Z,20.99
2022-08-21T16:23:26.742Z,20.97
2022-08-21T16:28:31.321Z,20.94
2022-08-21T16:33:39.318Z,20.85
2022-08-21T16:38:44.261Z,20.79
2022-08-21T16:43:48.950Z,20.72
2022-08-21T16:48:51.659Z,20.62
2022-08-21T16:53:54.696Z,20.54
2022-08-21T16:58:58.861Z,20.50
2022-08-21T17:04:01.584Z,20.49
2022-08-21T17:09:04.669Z,20.45
2022-08-21T17:14:21.584Z,20.43
2022-08-21T17:19:24.342Z,20.39
2022-08-21T17:24:27.259Z,20.29
2022-08-21T17:29:35.941Z,20.22
2022-08-21T17:34:40.631Z,20.12
2022-08-21T17:39:43.459Z,20.02
2022-08-21T17:44:47.229Z,19.94
2022-08-21T17:49:50.241Z,19.83
2022-08-21T17:54:52.949Z,19.76
2022-08-21T17:59:58.458Z,19.76
2022-08-21T18:05:02.127Z,19.72
2022-08-21T18:10:11.159Z,19.67
2022-08-21T18:15:17.194Z,19.63
2022-08-21T18:20:23.233Z,19.61
2022-08-21T18:25:26.422Z,19.57
2022-08-21T18:30:29.334Z,19.57
2022-08-21T18:35:32.668Z,19.54
2022-08-21T18:40:44.204Z,19.53
2022-08-21T18:45:47.331Z,19.50
2022-08-21T18:50:50.059Z,19.48
2022-08-21T18:55:53.165Z,19.45
2022-08-21T19:00:57.147Z,19.42
2022-08-21T19:06:00.117Z,19.38
2022-08-21T19:11:03.323Z,19.32
2022-08-21T19:16:08.187Z,19.20
2022-08-21T19:21:12.505Z,19.06
2022-08-21T19:26:16.732Z,18.86
2022-08-21T19:31:26.352Z,18.56
2022-08-21T19:36:32.813Z,18.42
2022-08-21T19:41:38.870Z,18.31
2022-08-21T19:46:44.644Z,18.19
2022-08-21T19:51:47.425Z,18.09
2022-08-21T19:56:54.847Z,18.02
2022-08-21T20:01:57.593Z,17.95
2022-08-21T20:07:00.543Z,17.88
2022-08-21T20:12:10.005Z,17.83
2022-08-21T20:17:16.673Z,17.81
2022-08-21T20:22:20.428Z,17.76
2022-08-21T20:27:26.458Z,17.72
2022-08-21T20:32:30.285Z,17.70
2022-08-21T20:37:37.059Z,17.69
2022-08-21T20:42:44.681Z,17.69
2022-08-21T20:47:52.565Z,17.67
2022-08-21T20:53:05.768Z,17.66
2022-08-21T20:58:15.717Z,17.65
2022-08-21T21:03:34.108Z,17.65
2022-08-21T21:08:50.784Z,17.62
2022-08-21T21:14:02.053Z,17.66
2022-08-21T21:19:37.455Z,17.64
2022-08-21T21:24:52.422Z,17.66
2022-08-21T21:30:02.614Z,17.62
2022-08-21T21:35:07.444Z,17.58
2022-08-21T21:41:02.931Z,17.55
2022-08-21T21:46:20.423Z,17.56
2022-08-21T21:51:26.026Z,17.57
2022-08-21T21:56:29.104Z,17.54
2022-08-21T22:01:58.222Z,17.41
2022-08-21T22:07:19.867Z,17.28
2022-08-21T22:12:42.114Z,17.13
2022-08-21T22:18:09.343Z,16.92
2022-08-21T22:23:18.144Z,16.76
2022-08-21T22:34:06.251Z,16.60
2022-08-21T22:39:16.909Z,16.50
2022-08-21T22:44:27.277Z,16.43
2022-08-21T22:49:34.970Z,16.38
2022-08-21T22:54:43.383Z,16.35
2022-08-21T23:00:00.681Z,16.31
2022-08-21T23:05:21.574Z,16.29
2022-08-21T23:10:26.419Z,16.32
2022-08-21T23:15:54.709Z,16.26
2022-08-21T23:21:10.125Z,16.20
2022-08-21T23:26:22.722Z,16.17
2022-08-21T23:31:35.534Z,16.11
2022-08-21T23:37:06.999Z,16.09
2022-08-21T23:42:20.450Z,16.09
2022-08-21T23:47:23.607Z,16.00
2022-08-21T23:52:38.307Z,15.89
2022-08-21T23:58:14.961Z,15.82
